createdAt,value
2023-04-21T00:00:21.613Z,19
2023-04-21T00:02:50.141Z,15
2023-04-21T00:04:04.244Z,18
2023-04-21T00:05:18.456Z,18
2023-04-21T00:07:46.525Z,18
2023-04-21T00:09:00.562Z,18
2023-04-21T00:10:14.949Z,19
2023-04-21T00:12:43.290Z,18
2023-04-21T00:13:57.416Z,18
2023-04-21T00:15:11.564Z,18
2023-04-21T00:17:39.984Z,17
2023-04-21T00:18:53.974Z,17
2023-04-21T00:20:07.966Z,24
2023-04-21T00:21:22.253Z,19
2023-04-21T00:23:50.473Z,19
2023-04-21T00:25:04.844Z,20
2023-04-21T00:26:18.909Z,19
2023-04-21T00:28:46.973Z,18
2023-04-21T00:30:01.037Z,19
2023-04-21T00:31:15.539Z,22
2023-04-21T00:33:43.661Z,20
2023-04-21T00:34:57.663Z,20
2023-04-21T00:36:11.853Z,21
2023-04-21T00:37:26.144Z,22
2023-04-21T00:38:40.004Z,20
2023-04-21T00:39:54.417Z,22
2023-04-21T00:41:08.394Z,19
2023-04-21T00:42:22.543Z,20
2023-04-21T00:44:50.737Z,23
2023-04-21T00:46:04.955Z,21
2023-04-21T00:47:19.072Z,22
2023-04-21T00:49:47.255Z,21
2023-04-21T00:51:01.418Z,21
2023-04-21T00:52:15.747Z,24
2023-04-21T00:54:44.026Z,23
2023-04-21T00:55:57.957Z,22
2023-04-21T00:57:12.147Z,21
2023-04-21T00:59:40.424Z,26
2023-04-21T01:00:54.491Z,25
2023-04-21T01:02:08.797Z,23
2023-04-21T01:03:22.938Z,25
2023-04-21T01:05:50.961Z,25
2023-04-21T01:07:05.303Z,23
2023-04-21T01:08:19.390Z,24
2023-04-21T01:10:47.514Z,22
2023-04-21T01:12:01.705Z,21
2023-04-21T01:13:15.791Z,24
2023-04-21T01:15:44.278Z,23
2023-04-21T01:16:58.430Z,18
2023-04-21T01:18:12.319Z,23
2023-04-21T01:20:40.567Z,22
2023-04-21T01:21:54.786Z,23
2023-04-21T01:23:08.820Z,23
2023-04-21T01:24:22.981Z,23
2023-04-21T01:26:51.257Z,21
2023-04-21T01:28:05.514Z,22
2023-04-21T01:29:19.944Z,22
2023-04-21T01:31:47.855Z,19
2023-04-21T01:33:01.913Z,21
2023-04-21T01:34:16.224Z,24
2023-04-21T01:36:44.461Z,24
2023-04-21T01:37:58.480Z,19
2023-04-21T01:39:12.588Z,22
2023-04-21T01:41:40.870Z,22
2023-04-21T01:42:55.026Z,21
2023-04-21T01:44:09.090Z,24
2023-04-21T01:45:23.462Z,22
2023-04-21T01:47:51.513Z,24
2023-04-21T01:49:05.815Z,24
2023-04-21T01:50:19.936Z,25
2023-04-21T01:52:48.059Z,25
2023-04-21T01:54:02.117Z,23
2023-04-21T01:55:16.505Z,20
2023-04-21T01:57:44.721Z,23
2023-04-21T01:58:59.019Z,22
2023-04-21T02:00:12.892Z,23
2023-04-21T02:01:27.158Z,23
2023-04-21T02:02:41.237Z,23
2023-04-21T02:03:55.651Z,24
2023-04-21T02:05:09.438Z,23
2023-04-21T02:06:23.678Z,22
2023-04-21T02:08:51.812Z,23
2023-04-21T02:10:05.950Z,20
2023-04-21T02:11:20.026Z,22
2023-04-21T02:13:48.469Z,22
2023-04-21T02:15:02.500Z,24
2023-04-21T02:16:16.594Z,23
2023-04-21T02:18:44.954Z,22
2023-04-21T02:19:59.156Z,22
2023-04-21T02:21:13.094Z,23
2023-04-21T02:23:41.358Z,22
2023-04-21T02:24:55.495Z,25
2023-04-21T02:26:09.684Z,22
2023-04-21T02:27:23.876Z,24
2023-04-21T02:29:52.049Z,21
2023-04-21T02:31:06.304Z,21
2023-04-21T02:32:25.464Z,24
2023-04-21T02:34:48.593Z,22
2023-04-21T02:36:02.836Z,22
2023-04-21T02:37:17.024Z,22
2023-04-21T02:39:45.147Z,22
2023-04-21T02:40:59.335Z,23
2023-04-21T02:42:13.374Z,22
2023-04-21T02:44:41.647Z,20
2023-04-21T02:45:55.735Z,22
2023-04-21T02:47:10.073Z,21
2023-04-21T02:48:24.109Z,26
2023-04-21T02:50:52.388Z,25
2023-04-21T02:52:06.623Z,24
2023-04-21T02:53:20.571Z,21
2023-04-21T02:55:48.834Z,22
2023-04-21T02:57:03.172Z,24
2023-04-21T02:58:17.015Z,26
2023-04-21T03:00:45.363Z,22
2023-04-21T03:01:59.633Z,23
2023-04-21T03:03:13.816Z,24
2023-04-21T03:05:41.889Z,24
2023-04-21T03:06:55.976Z,24
2023-04-21T03:08:10.221Z,27
2023-04-21T03:09:24.365Z,25
2023-04-21T03:11:52.529Z,27
2023-04-21T03:13:06.753Z,29
2023-04-21T03:14:20.800Z,25
2023-04-21T03:16:49.112Z,25
2023-04-21T03:18:03.426Z,23
2023-04-21T03:19:17.557Z,26
2023-04-21T03:21:45.634Z,25
2023-04-21T03:22:59.887Z,24
2023-04-21T03:24:13.910Z,22
2023-04-21T03:26:42.188Z,26
2023-04-21T03:27:56.326Z,25
2023-04-21T03:29:10.438Z,24
2023-04-21T03:30:24.760Z,25
2023-04-21T03:32:53.017Z,25
2023-04-21T03:34:06.916Z,28
2023-04-21T03:35:21.051Z,26
2023-04-21T03:37:49.402Z,28
2023-04-21T03:39:18.822Z,24
2023-04-21T03:40:17.708Z,26
2023-04-21T03:42:45.985Z,28
2023-04-21T03:44:00.018Z,26
2023-04-21T03:45:14.159Z,26
2023-04-21T03:47:42.453Z,26
2023-04-21T03:48:56.571Z,24
2023-04-21T03:50:10.679Z,27
2023-04-21T03:52:39.034Z,26
2023-04-21T03:53:53.226Z,26
2023-04-21T03:55:07.363Z,28
2023-04-21T03:56:21.369Z,28
2023-04-21T03:58:49.623Z,29
2023-04-21T04:00:04.018Z,26
2023-04-21T04:01:17.901Z,24
2023-04-21T04:03:46.297Z,25
2023-04-21T04:05:00.352Z,27
2023-04-21T04:06:14.400Z,26
2023-04-21T04:08:42.846Z,29
2023-04-21T04:09:56.763Z,27
2023-04-21T04:11:10.909Z,28
2023-04-21T04:13:39.190Z,27
2023-04-21T04:14:53.468Z,27
2023-04-21T04:16:07.855Z,29
2023-04-21T04:17:21.611Z,29
2023-04-21T04:19:49.867Z,28
2023-04-21T04:21:04.057Z,28
2023-04-21T04:22:18.145Z,26
2023-04-21T04:24:46.470Z,27
2023-04-21T04:26:00.404Z,26
2023-04-21T04:27:14.694Z,28
2023-04-21T04:29:43.023Z,27
2023-04-21T04:30:57.048Z,28
2023-04-21T04:32:11.401Z,26
2023-04-21T04:34:39.522Z,45
2023-04-21T04:35:53.607Z,44
2023-04-21T04:37:07.701Z,41
2023-04-21T04:38:21.834Z,40
2023-04-21T04:40:50.006Z,34
2023-04-21T04:42:04.451Z,33
2023-04-21T04:43:18.484Z,34
2023-04-21T04:45:46.865Z,34
2023-04-21T04:47:00.791Z,33
2023-04-21T04:48:14.941Z,33
2023-04-21T04:50:43.469Z,31
2023-04-21T04:51:57.362Z,30
2023-04-21T04:53:11.331Z,31
2023-04-21T04:55:39.777Z,29
2023-04-21T04:56:54.002Z,33
2023-04-21T04:58:08.356Z,29
2023-04-21T04:59:22.129Z,29
2023-04-21T05:01:50.343Z,28
2023-04-21T05:03:04.738Z,26
2023-04-21T05:04:18.980Z,28
2023-04-21T05:06:47.057Z,28
2023-04-21T05:08:00.992Z,29
2023-04-21T05:09:15.183Z,28
2023-04-21T05:11:43.456Z,30
2023-04-21T05:12:57.584Z,35
2023-04-21T05:14:11.694Z,29
2023-04-21T05:16:40.124Z,31
2023-04-21T05:17:54.319Z,32
2023-04-21T05:19:08.388Z,29
2023-04-21T05:20:22.424Z,30
2023-04-21T05:22:50.649Z,28
2023-04-21T05:24:04.927Z,26
2023-04-21T05:25:18.886Z,28
2023-04-21T05:27:47.355Z,25
2023-04-21T05:29:01.288Z,26
2023-04-21T05:30:15.445Z,28
2023-04-21T05:32:43.846Z,29
2023-04-21T05:33:57.840Z,31
2023-04-21T05:35:11.978Z,30
2023-04-21T05:37:40.423Z,30
2023-04-21T05:38:54.597Z,39
2023-04-21T05:40:08.794Z,47
2023-04-21T05:41:22.779Z,64
2023-04-21T05:43:50.921Z,105
2023-04-21T05:45:05.205Z,107
2023-04-21T05:46:19.268Z,102
2023-04-21T05:48:47.571Z,87
2023-04-21T05:50:01.607Z,76
2023-04-21T05:51:15.771Z,64
2023-04-21T05:53:44.000Z,63
2023-04-21T05:54:58.136Z,52
2023-04-21T05:56:12.394Z,47
2023-04-21T05:58:40.499Z,38
2023-04-21T05:59:54.993Z,35
2023-04-21T06:01:08.955Z,37
2023-04-21T06:02:23.305Z,35
2023-04-21T06:04:51.376Z,29
2023-04-21T06:06:05.480Z,30
2023-04-21T06:07:19.665Z,29
2023-04-21T06:09:47.801Z,30
2023-04-21T06:11:01.835Z,29
2023-04-21T06:12:15.974Z,29
2023-04-21T06:14:44.376Z,28
2023-04-21T06:15:58.566Z,29
2023-04-21T06:17:12.580Z,27
2023-04-21T06:19:45.924Z,24
2023-04-21T06:20:54.942Z,27
2023-04-21T06:22:09.178Z,22
2023-04-21T06:23:23.214Z,28
2023-04-21T06:25:51.504Z,27
2023-04-21T06:27:05.828Z,27
2023-04-21T06:28:19.759Z,25
2023-04-21T06:30:47.987Z,24
2023-04-21T06:32:02.169Z,25
2023-04-21T06:33:16.310Z,25
2023-04-21T06:35:44.744Z,30
2023-04-21T06:36:58.928Z,25
2023-04-21T06:38:12.966Z,23
2023-04-21T06:39:27.284Z,26
2023-04-21T06:40:41.034Z,25
2023-04-21T06:41:55.275Z,24
2023-04-21T06:43:09.310Z,27
2023-04-21T06:44:23.721Z,26
2023-04-21T06:46:51.882Z,25
2023-04-21T06:48:06.034Z,26
2023-04-21T06:49:20.238Z,26
2023-04-21T06:51:48.489Z,23
2023-04-21T06:53:02.531Z,28
2023-04-21T06:54:16.557Z,26
2023-04-21T06:56:44.827Z,27
2023-04-21T06:57:59.057Z,26
2023-04-21T06:59:13.001Z,25
2023-04-21T07:01:41.383Z,24
2023-04-21T07:02:55.588Z,26
2023-04-21T07:04:09.572Z,25
2023-04-21T07:05:23.949Z,26
2023-04-21T07:07:51.971Z,21
2023-04-21T07:09:06.136Z,24
2023-04-21T07:10:20.270Z,21
2023-04-21T07:12:48.654Z,23
2023-04-21T07:14:02.710Z,28
2023-04-21T07:15:16.802Z,28
2023-04-21T07:17:45.215Z,23
2023-04-21T07:18:59.217Z,26
2023-04-21T07:20:13.456Z,22
2023-04-21T07:22:41.580Z,25
2023-04-21T07:23:55.753Z,21
2023-04-21T07:25:09.961Z,26
2023-04-21T07:26:24.131Z,27
2023-04-21T07:28:52.300Z,25
2023-04-21T07:30:06.610Z,25
2023-04-21T07:31:20.670Z,21
2023-04-21T07:33:48.977Z,25
2023-04-21T07:35:02.915Z,25
2023-04-21T07:36:17.050Z,22
2023-04-21T07:38:45.322Z,24
2023-04-21T07:39:59.561Z,25
2023-04-21T07:41:13.598Z,25
2023-04-21T07:43:41.876Z,21
2023-04-21T07:44:55.979Z,23
2023-04-21T07:46:10.254Z,20
2023-04-21T07:47:24.328Z,21
2023-04-21T07:49:52.538Z,24
2023-04-21T07:51:06.806Z,24
2023-04-21T07:52:20.807Z,19
2023-04-21T07:54:49.016Z,23
2023-04-21T07:56:03.408Z,23
2023-04-21T07:57:17.348Z,25
2023-04-21T07:59:45.772Z,22
2023-04-21T08:00:59.740Z,22
2023-04-21T08:02:14.067Z,20
2023-04-21T08:04:42.206Z,24
2023-04-21T08:05:56.720Z,22
2023-04-21T08:07:10.415Z,21
2023-04-21T08:08:24.618Z,22
2023-04-21T08:10:52.965Z,23
2023-04-21T08:12:07.042Z,22
2023-04-21T08:13:21.053Z,21
2023-04-21T08:15:49.662Z,25
2023-04-21T08:17:03.467Z,24
2023-04-21T08:18:19.916Z,23
2023-04-21T08:20:46.070Z,22
2023-04-21T08:22:00.238Z,19
2023-04-21T08:23:14.442Z,22
2023-04-21T08:25:50.444Z,21
2023-04-21T08:27:04.949Z,21
2023-04-21T08:28:18.930Z,23
2023-04-21T08:30:47.415Z,20
2023-04-21T08:32:01.494Z,20
2023-04-21T08:33:15.479Z,17
2023-04-21T08:35:55.058Z,20
2023-04-21T08:36:57.881Z,21
2023-04-21T08:38:11.944Z,22
2023-04-21T08:40:40.411Z,21
2023-04-21T08:41:54.453Z,21
2023-04-21T08:43:08.689Z,18
2023-04-21T08:44:22.834Z,21
2023-04-21T08:46:50.963Z,22
2023-04-21T08:48:05.269Z,21
2023-04-21T08:49:19.588Z,21
2023-04-21T08:51:47.670Z,22
2023-04-21T08:53:01.536Z,19
2023-04-21T08:54:15.774Z,19
2023-04-21T08:56:44.155Z,19
2023-04-21T08:57:58.038Z,19
2023-04-21T08:59:12.226Z,18
2023-04-21T09:01:40.469Z,20
2023-04-21T09:03:00.212Z,20
2023-04-21T09:04:08.993Z,18
2023-04-21T09:05:23.126Z,19
2023-04-21T09:07:51.107Z,19
2023-04-21T09:09:05.233Z,20
2023-04-21T09:10:19.473Z,19
2023-04-21T09:12:47.854Z,20
2023-04-21T09:14:01.833Z,19
2023-04-21T09:15:16.145Z,18
2023-04-21T09:17:44.479Z,20
2023-04-21T09:18:58.541Z,18
2023-04-21T09:20:12.832Z,16
2023-04-21T09:22:40.706Z,21
2023-04-21T09:23:54.891Z,18
2023-04-21T09:25:08.986Z,19
2023-04-21T09:26:23.423Z,19
2023-04-21T09:28:51.447Z,20
2023-04-21T09:30:05.732Z,19
2023-04-21T09:31:20.322Z,22
2023-04-21T09:33:57.699Z,18
2023-04-21T09:35:02.085Z,23
2023-04-21T09:36:16.275Z,22
2023-04-21T09:38:45.672Z,19
2023-04-21T09:41:12.731Z,20
2023-04-21T09:43:40.945Z,17
2023-04-21T09:45:10.664Z,18
2023-04-21T09:46:09.281Z,20
2023-04-21T09:47:23.632Z,17
2023-04-21T09:49:51.689Z,22
2023-04-21T09:52:20.000Z,20
2023-04-21T09:54:48.339Z,19
2023-04-21T09:56:02.552Z,22
2023-04-21T09:57:16.699Z,21
2023-04-21T09:59:44.795Z,23
2023-04-21T10:00:58.946Z,21
2023-04-21T10:02:13.497Z,22
2023-04-21T10:04:41.655Z,21
2023-04-21T10:05:55.530Z,22
2023-04-21T10:07:09.569Z,20
2023-04-21T10:08:23.862Z,21
2023-04-21T10:10:51.983Z,21
2023-04-21T10:12:09.025Z,21
2023-04-21T10:13:20.215Z,21
2023-04-21T10:15:48.716Z,20
2023-04-21T10:17:02.793Z,23
2023-04-21T10:18:16.865Z,18
2023-04-21T10:20:45.100Z,19
2023-04-21T10:21:59.133Z,19
2023-04-21T10:23:13.326Z,20
2023-04-21T10:25:41.589Z,19
2023-04-21T10:26:55.723Z,18
2023-04-21T10:28:09.699Z,19
2023-04-21T10:29:24.104Z,16
2023-04-21T10:31:52.335Z,18
2023-04-21T10:33:06.633Z,15
2023-04-21T10:34:20.815Z,17
2023-04-21T10:36:48.910Z,17
2023-04-21T10:38:02.926Z,17
2023-04-21T10:39:17.330Z,18
2023-04-21T10:41:45.236Z,16
2023-04-21T10:42:59.525Z,16
2023-04-21T10:44:13.717Z,16
2023-04-21T10:46:41.905Z,17
2023-04-21T10:47:56.053Z,15
2023-04-21T10:49:10.094Z,15
2023-04-21T10:50:24.225Z,17
2023-04-21T10:52:52.645Z,14
2023-04-21T10:54:06.611Z,15
2023-04-21T10:55:20.764Z,16
2023-04-21T10:57:49.218Z,16
2023-04-21T10:59:03.128Z,16
2023-04-21T11:00:17.301Z,16
2023-04-21T11:02:45.695Z,16
2023-04-21T11:03:59.876Z,14
2023-04-21T11:05:14.151Z,16
2023-04-21T11:07:41.921Z,14
2023-04-21T11:08:56.260Z,14
2023-04-21T11:10:10.263Z,14
2023-04-21T11:11:24.486Z,13
2023-04-21T11:13:52.810Z,14
2023-04-21T11:15:07.004Z,13
2023-04-21T11:16:21.040Z,14
2023-04-21T11:18:49.368Z,12
2023-04-21T11:20:03.505Z,13
2023-04-21T11:21:17.554Z,10
2023-04-21T11:23:45.868Z,12
2023-04-21T11:24:59.860Z,11
2023-04-21T11:26:14.205Z,12
2023-04-21T11:28:42.392Z,10
2023-04-21T11:29:56.354Z,10
2023-04-21T11:31:10.629Z,9
2023-04-21T11:32:24.934Z,9
2023-04-21T11:34:53.111Z,9
2023-04-21T11:36:07.288Z,10
2023-04-21T11:37:21.324Z,12
2023-04-21T11:39:49.679Z,9
2023-04-21T11:41:03.707Z,12
2023-04-21T11:42:17.995Z,10
2023-04-21T11:44:46.054Z,9
2023-04-21T11:46:00.236Z,9
2023-04-21T11:47:14.501Z,8
2023-04-21T11:49:42.672Z,10
2023-04-21T11:50:56.656Z,10
2023-04-21T11:52:10.898Z,9
2023-04-21T11:54:39.124Z,11
2023-04-21T11:55:53.413Z,10
2023-04-21T11:57:07.352Z,10
2023-04-21T11:58:21.487Z,9
2023-04-21T12:00:49.657Z,9
2023-04-21T12:02:03.991Z,9
2023-04-21T12:03:18.507Z,10
2023-04-21T12:05:46.332Z,8
2023-04-21T12:07:00.524Z,7
2023-04-21T12:08:14.713Z,10
2023-04-21T12:10:42.969Z,8
2023-04-21T12:11:57.001Z,7
2023-04-21T12:13:11.050Z,9
2023-04-21T12:15:39.584Z,8
2023-04-21T12:16:53.789Z,8
2023-04-21T12:18:07.858Z,9
2023-04-21T12:19:21.727Z,10
2023-04-21T12:21:50.281Z,11
2023-04-21T12:23:04.158Z,12
2023-04-21T12:24:18.283Z,12
2023-04-21T12:26:46.556Z,11
2023-04-21T12:28:00.696Z,13
2023-04-21T12:29:15.049Z,13
2023-04-21T12:31:43.400Z,12
2023-04-21T12:32:57.549Z,11
2023-04-21T12:34:11.443Z,11
2023-04-21T12:36:39.731Z,11
2023-04-21T12:37:53.902Z,10
2023-04-21T12:39:08.044Z,11
2023-04-21T12:40:22.036Z,10
2023-04-21T12:42:50.351Z,9
2023-04-21T12:44:04.497Z,10
2023-04-21T12:45:18.701Z,10
2023-04-21T12:46:32.869Z,12
2023-04-21T12:47:47.284Z,9
2023-04-21T12:49:00.944Z,10
2023-04-21T12:50:15.238Z,9
2023-04-21T12:52:43.435Z,11
2023-04-21T12:53:57.549Z,10
2023-04-21T12:55:11.690Z,8
2023-04-21T12:57:39.804Z,9
2023-04-21T12:58:54.102Z,8
2023-04-21T13:00:08.384Z,11
2023-04-21T13:01:22.699Z,10
2023-04-21T13:03:50.965Z,9
2023-04-21T13:05:04.788Z,9
2023-04-21T13:06:18.927Z,9
2023-04-21T13:08:47.306Z,9
2023-04-21T13:10:01.352Z,9
2023-04-21T13:11:15.374Z,8
2023-04-21T13:13:43.700Z,8
2023-04-21T13:14:57.839Z,9
2023-04-21T13:16:11.970Z,8
2023-04-21T13:18:40.253Z,9
2023-04-21T13:19:54.413Z,9
2023-04-21T13:21:08.583Z,7
2023-04-21T13:22:22.832Z,9
2023-04-21T13:24:50.896Z,9
2023-04-21T13:26:05.188Z,9
2023-04-21T13:27:19.169Z,7
2023-04-21T13:29:47.560Z,7
2023-04-21T13:31:01.584Z,8
2023-04-21T13:32:15.780Z,8
2023-04-21T13:34:43.999Z,8
2023-04-21T13:35:58.039Z,7
2023-04-21T13:37:12.079Z,8
2023-04-21T13:39:40.480Z,7
2023-04-21T13:40:54.603Z,7
2023-04-21T13:42:08.712Z,6
2023-04-21T13:43:22.941Z,6
2023-04-21T13:45:51.042Z,6
2023-04-21T13:47:07.452Z,7
2023-04-21T13:48:19.522Z,7
2023-04-21T13:50:47.798Z,7
2023-04-21T13:52:01.773Z,6
2023-04-21T13:53:16.412Z,6
2023-04-21T13:55:44.207Z,7
2023-04-21T13:56:58.294Z,6
2023-04-21T13:58:12.415Z,6
2023-04-21T14:00:40.691Z,6
2023-04-21T14:01:54.941Z,5
2023-04-21T14:03:09.187Z,7
2023-04-21T14:04:23.481Z,6
2023-04-21T14:06:51.393Z,6
2023-04-21T14:08:05.664Z,6
2023-04-21T14:09:19.655Z,7
2023-04-21T14:11:53.273Z,5
2023-04-21T14:13:02.024Z,7
2023-04-21T14:14:24.285Z,6
2023-04-21T14:16:44.702Z,6
2023-04-21T14:17:58.628Z,5
2023-04-21T14:19:12.735Z,5
2023-04-21T14:21:40.930Z,7
2023-04-21T14:22:55.510Z,6
2023-04-21T14:24:09.270Z,5
2023-04-21T14:25:23.479Z,5
2023-04-21T14:27:51.634Z,5
2023-04-21T14:29:05.758Z,5
2023-04-21T14:30:19.953Z,5
2023-04-21T14:32:48.385Z,5
2023-04-21T14:34:02.813Z,5
2023-04-21T14:35:16.463Z,5
2023-04-21T14:37:44.714Z,4
2023-04-21T14:38:58.891Z,4
2023-04-21T14:40:13.114Z,4
2023-04-21T14:42:41.317Z,7
2023-04-21T14:43:55.622Z,4
2023-04-21T14:45:09.533Z,4
2023-04-21T14:46:23.880Z,5
2023-04-21T14:48:51.947Z,6
2023-04-21T14:50:06.296Z,5
2023-04-21T14:51:20.183Z,5
2023-04-21T14:53:48.636Z,4
2023-04-21T14:55:02.751Z,5
2023-04-21T14:56:16.696Z,5
2023-04-21T14:58:45.126Z,4
2023-04-21T14:59:59.326Z,5
2023-04-21T15:01:13.317Z,4
2023-04-21T15:03:41.640Z,4
2023-04-21T15:04:56.004Z,4
2023-04-21T15:06:09.683Z,4
2023-04-21T15:07:25.037Z,4
2023-04-21T15:09:52.310Z,5
2023-04-21T15:11:06.630Z,4
2023-04-21T15:12:20.405Z,4
2023-04-21T15:14:48.887Z,3
2023-04-21T15:16:02.872Z,3
2023-04-21T15:17:17.211Z,5
2023-04-21T15:19:45.489Z,4
2023-04-21T15:20:59.475Z,4
2023-04-21T15:22:13.688Z,7
2023-04-21T15:24:41.837Z,4
2023-04-21T15:25:56.090Z,5
2023-04-21T15:27:10.060Z,4
2023-04-21T15:28:24.352Z,4
2023-04-21T15:30:52.647Z,4
2023-04-21T15:32:06.673Z,4
2023-04-21T15:33:20.742Z,4
2023-04-21T15:35:49.183Z,4
2023-04-21T15:37:03.325Z,5
2023-04-21T15:38:17.683Z,4
2023-04-21T15:40:59.734Z,4
2023-04-21T15:41:59.564Z,3
2023-04-21T15:43:13.801Z,4
2023-04-21T15:45:42.094Z,4
2023-04-21T15:46:56.489Z,5
2023-04-21T15:48:10.417Z,4
2023-04-21T15:49:26.007Z,3
2023-04-21T15:51:52.808Z,5
2023-04-21T15:53:07.102Z,4
2023-04-21T15:54:20.880Z,6
2023-04-21T15:56:49.325Z,3
2023-04-21T15:58:03.450Z,4
2023-04-21T15:59:17.628Z,5
2023-04-21T16:01:45.958Z,4
2023-04-21T16:03:00.370Z,4
2023-04-21T16:04:14.273Z,4
2023-04-21T16:06:42.326Z,4
2023-04-21T16:07:56.619Z,7
2023-04-21T16:09:10.480Z,4
2023-04-21T16:10:24.888Z,3
2023-04-21T16:12:53.017Z,4
2023-04-21T16:14:07.265Z,3
2023-04-21T16:15:24.268Z,4
2023-04-21T16:17:49.726Z,4
2023-04-21T16:19:03.660Z,3
2023-04-21T16:20:17.914Z,4
2023-04-21T16:22:46.112Z,3
2023-04-21T16:24:00.295Z,5
2023-04-21T16:25:14.506Z,3
2023-04-21T16:27:42.645Z,4
2023-04-21T16:28:56.696Z,4
2023-04-21T16:30:10.933Z,4
2023-04-21T16:31:25.097Z,3
2023-04-21T16:33:53.363Z,4
2023-04-21T16:35:07.788Z,3
2023-04-21T16:36:21.658Z,3
2023-04-21T16:38:49.722Z,4
2023-04-21T16:40:04.023Z,3
2023-04-21T16:41:20.851Z,4
2023-04-21T16:43:46.494Z,3
2023-04-21T16:45:00.501Z,3
2023-04-21T16:46:14.723Z,3
2023-04-21T16:48:42.967Z,4
2023-04-21T16:49:57.137Z,4
2023-04-21T16:51:11.249Z,3
2023-04-21T16:53:40.359Z,4
2023-04-21T16:54:53.576Z,3
2023-04-21T16:56:07.700Z,3
2023-04-21T16:57:21.851Z,5
2023-04-21T16:59:50.074Z,3
2023-04-21T17:01:04.341Z,3
2023-04-21T17:02:18.578Z,5
2023-04-21T17:04:46.620Z,3
2023-04-21T17:06:00.708Z,4
2023-04-21T17:07:14.949Z,4
2023-04-21T17:09:43.270Z,3
2023-04-21T17:10:57.303Z,4
2023-04-21T17:12:11.397Z,4
2023-04-21T17:14:39.848Z,5
2023-04-21T17:15:54.066Z,4
2023-04-21T17:17:08.163Z,4
2023-04-21T17:18:22.191Z,5
2023-04-21T17:20:50.201Z,4
2023-04-21T17:22:04.911Z,4
2023-04-21T17:23:18.836Z,4
2023-04-21T17:24:51.991Z,5
2023-04-21T17:25:47.066Z,4
2023-04-21T17:27:01.069Z,3
2023-04-21T17:28:15.346Z,4
2023-04-21T17:30:43.395Z,5
2023-04-21T17:31:57.576Z,6
2023-04-21T17:33:17.026Z,6
2023-04-21T17:35:46.052Z,6
2023-04-21T17:36:54.151Z,4
2023-04-21T17:38:08.604Z,5
2023-04-21T17:39:22.534Z,5
2023-04-21T17:41:50.698Z,6
2023-04-21T17:43:04.847Z,5
2023-04-21T17:44:18.983Z,5
2023-04-21T17:46:47.335Z,6
2023-04-21T17:48:01.227Z,6
2023-04-21T17:49:15.449Z,5
2023-04-21T17:51:43.709Z,6
2023-04-21T17:52:57.844Z,6
2023-04-21T17:54:11.983Z,6
2023-04-21T17:55:26.124Z,5
2023-04-21T17:56:40.107Z,6
2023-04-21T17:57:54.452Z,5
2023-04-21T17:59:08.486Z,4
2023-04-21T18:00:22.633Z,5
2023-04-21T18:02:50.934Z,5
2023-04-21T18:04:13.530Z,5
2023-04-21T18:05:19.431Z,5
2023-04-21T18:07:47.606Z,5
2023-04-21T18:09:01.542Z,6
2023-04-21T18:10:15.784Z,6
2023-04-21T18:12:43.960Z,5
2023-04-21T18:13:58.133Z,6
2023-04-21T18:15:12.237Z,5
2023-04-21T18:17:40.556Z,6
2023-04-21T18:18:54.730Z,5
2023-04-21T18:20:08.886Z,6
2023-04-21T18:21:23.065Z,5
2023-04-21T18:23:51.174Z,6
2023-04-21T18:25:05.498Z,5
2023-04-21T18:26:19.486Z,7
2023-04-21T18:28:47.697Z,5
2023-04-21T18:30:01.797Z,5
2023-04-21T18:31:16.058Z,6
2023-04-21T18:33:44.400Z,5
2023-04-21T18:34:58.420Z,5
2023-04-21T18:36:12.476Z,8
2023-04-21T18:38:40.855Z,6
2023-04-21T18:44:51.444Z,6
2023-04-21T18:46:05.682Z,5
2023-04-21T18:47:19.797Z,6
2023-04-21T18:49:47.943Z,7
2023-04-21T18:51:01.934Z,6
2023-04-21T18:52:16.317Z,7
2023-04-21T18:54:44.646Z,6
2023-04-21T18:55:58.636Z,7
2023-04-21T18:57:12.922Z,5
2023-04-21T18:59:40.943Z,5
2023-04-21T19:00:55.442Z,6
2023-04-21T19:02:09.493Z,5
2023-04-21T19:03:23.549Z,5
2023-04-21T19:05:56.704Z,4
2023-04-21T19:07:05.797Z,4
2023-04-21T19:08:30.390Z,4
2023-04-21T19:10:48.242Z,4
2023-04-21T19:12:02.341Z,3
2023-04-21T19:13:16.519Z,6
2023-04-21T19:15:44.854Z,6
2023-04-21T19:16:59.080Z,5
2023-04-21T19:18:13.236Z,4
2023-04-21T19:20:41.309Z,7
2023-04-21T19:21:55.644Z,6
2023-04-21T19:23:09.576Z,5
2023-04-21T19:24:23.930Z,5
2023-04-21T19:26:52.091Z,5
2023-04-21T19:28:06.398Z,6
2023-04-21T19:29:20.268Z,6
2023-04-21T19:31:48.599Z,7
2023-04-21T19:33:02.695Z,5
2023-04-21T19:34:16.740Z,6
2023-04-21T19:36:45.157Z,8
2023-04-21T19:37:59.169Z,5
2023-04-21T19:39:13.370Z,5
2023-04-21T19:41:41.599Z,7
2023-04-21T19:42:55.702Z,9
2023-04-21T19:44:09.818Z,9
2023-04-21T19:45:24.063Z,6
2023-04-21T19:47:52.104Z,5
2023-04-21T19:49:06.514Z,5
2023-04-21T19:50:20.421Z,5
2023-04-21T19:52:48.788Z,4
2023-04-21T19:54:10.714Z,4
2023-04-21T19:55:17.060Z,3
2023-04-21T19:57:45.446Z,3
2023-04-21T19:59:00.584Z,3
2023-04-21T20:00:13.620Z,3
2023-04-21T20:02:41.916Z,3
2023-04-21T20:03:56.570Z,4
2023-04-21T20:05:10.265Z,3
2023-04-21T20:06:24.432Z,3
2023-04-21T20:08:52.492Z,4
2023-04-21T20:10:06.670Z,3
2023-04-21T20:11:20.749Z,3
2023-04-21T20:13:48.969Z,3
2023-04-21T20:15:03.361Z,3
2023-04-21T20:16:17.385Z,3
2023-04-21T20:18:45.633Z,4
2023-04-21T20:19:59.674Z,4
2023-04-21T20:21:13.961Z,4
2023-04-21T20:23:42.045Z,3
2023-04-21T20:24:56.379Z,4
2023-04-21T20:26:10.420Z,3
2023-04-21T20:27:24.602Z,3
2023-04-21T20:29:53.235Z,4
2023-04-21T20:31:07.095Z,3
2023-04-21T20:32:21.006Z,3
2023-04-21T20:34:49.328Z,3
2023-04-21T20:36:03.431Z,3
2023-04-21T20:37:17.628Z,3
2023-04-21T20:39:45.937Z,4
2023-04-21T20:41:00.171Z,3
2023-04-21T20:42:14.259Z,4
2023-04-21T20:44:43.023Z,3
2023-04-21T20:45:56.521Z,3
2023-04-21T20:47:10.852Z,2
2023-04-21T20:48:24.868Z,3
2023-04-21T20:51:01.203Z,4
2023-04-21T20:52:15.574Z,3
2023-04-21T20:54:43.849Z,3
2023-04-21T20:55:57.770Z,4
2023-04-21T20:57:11.863Z,4
2023-04-21T20:58:26.095Z,3
2023-04-21T20:59:40.620Z,3
2023-04-21T21:00:54.391Z,3
2023-04-21T21:02:08.528Z,3
2023-04-21T21:03:22.775Z,3
2023-04-21T21:05:50.829Z,3
2023-04-21T21:07:05.116Z,3
2023-04-21T21:08:19.097Z,3
2023-04-21T21:10:47.373Z,3
2023-04-21T21:12:01.510Z,3
2023-04-21T21:13:15.608Z,3
2023-04-21T21:15:44.130Z,3
2023-04-21T21:16:58.188Z,4
2023-04-21T21:18:12.297Z,3
2023-04-21T21:20:40.328Z,4
2023-04-21T21:21:54.624Z,3
2023-04-21T21:23:08.756Z,4
2023-04-21T21:24:22.945Z,5
2023-04-21T21:26:51.117Z,2
2023-04-21T21:28:05.303Z,3
2023-04-21T21:29:19.341Z,3
2023-04-21T21:31:47.721Z,3
2023-04-21T21:33:01.850Z,3
2023-04-21T21:34:15.989Z,3
2023-04-21T21:36:44.296Z,3
2023-04-21T21:37:58.312Z,4
2023-04-21T21:39:12.495Z,3
2023-04-21T21:41:40.880Z,4
2023-04-21T21:42:54.925Z,4
2023-04-21T21:44:08.945Z,3
2023-04-21T21:45:23.117Z,3
2023-04-21T21:47:51.391Z,4
2023-04-21T21:49:05.600Z,3
2023-04-21T21:50:19.738Z,4
2023-04-21T21:52:47.963Z,3
2023-04-21T21:54:01.985Z,3
2023-04-21T21:55:16.292Z,3
2023-04-21T21:57:44.669Z,3
2023-04-21T21:58:58.610Z,3
2023-04-21T22:00:12.938Z,4
2023-04-21T22:02:40.968Z,4
2023-04-21T22:03:55.175Z,5
2023-04-21T22:05:09.202Z,4
2023-04-21T22:06:23.438Z,3
2023-04-21T22:08:51.707Z,5
2023-04-21T22:10:05.796Z,3
2023-04-21T22:11:19.994Z,4
2023-04-21T22:13:48.176Z,4
2023-04-21T22:15:02.344Z,4
2023-04-21T22:16:16.885Z,3
2023-04-21T22:18:44.835Z,3
2023-04-21T22:19:58.850Z,4
2023-04-21T22:21:13.092Z,4
2023-04-21T22:22:27.137Z,4
2023-04-21T22:23:41.266Z,4
2023-04-21T22:24:55.408Z,3
2023-04-21T22:26:09.556Z,3
2023-04-21T22:27:23.654Z,3
2023-04-21T22:29:51.866Z,3
2023-04-21T22:31:06.078Z,3
2023-04-21T22:32:20.233Z,3
2023-04-21T22:34:48.462Z,2
2023-04-21T22:36:02.649Z,3
2023-04-21T22:37:16.690Z,3
2023-04-21T22:39:45.063Z,3
2023-04-21T22:40:59.149Z,3
2023-04-21T22:42:13.414Z,3
2023-04-21T22:44:41.652Z,3
2023-04-21T22:45:55.612Z,3
2023-04-21T22:47:09.915Z,4
2023-04-21T22:48:23.890Z,3
2023-04-21T22:50:52.245Z,3
2023-04-21T22:52:06.647Z,4
2023-04-21T22:53:20.291Z,3
2023-04-21T22:55:48.702Z,2
2023-04-21T22:57:02.996Z,4
2023-04-21T22:58:17.032Z,4
2023-04-21T23:00:45.389Z,3
2023-04-21T23:01:59.398Z,3
2023-04-21T23:03:13.790Z,3
2023-04-21T23:05:41.760Z,3
2023-04-21T23:06:56.055Z,3
2023-04-21T23:08:09.989Z,3
2023-04-21T23:09:24.336Z,5
2023-04-21T23:11:52.503Z,3
2023-04-21T23:13:06.703Z,3
2023-04-21T23:14:20.785Z,3
2023-04-21T23:16:48.971Z,3
2023-04-21T23:18:03.289Z,3
2023-04-21T23:19:17.225Z,3
2023-04-21T23:21:45.605Z,3
2023-04-21T23:22:59.689Z,3